KBKW/BKW METAR and TAF weather

Enter ICAO airport designator
Station Type Date Time Source
KBKW METAR 2022/06/28 22:51 UTC NOAA

KBKW 282251Z AUTO 07005KT 10SM SCT055 24/12 A3024 RMK AO2 SLP220 T02390117


Station Type Date Time Source
KBKW Decoded METAR 2022/06/28 22:51 UTC NOAA

RALEIGH COUNTY MEM AIRPORT , WV, United States (KBKW) 37-48N 081-07W 764M
Jun 28, 2022 - 06:51 PM EDT / 2022.06.28 2251 UTC
Wind: from the ENE (070 degrees) at 6 MPH (5 KT):0
Visibility: 10 mile(s):0
Sky conditions: partly cloudy
Temperature: 75.0 F (23.9 C)
Dew Point: 53.1 F (11.7 C)
Relative Humidity: 46%
Pressure (altimeter): 30.24 in. Hg (1024 hPa)
ob: KBKW 282251Z AUTO 07005KT 10SM SCT055 24/12 A3024 RMK AO2 SLP220 T02390117
cycle: 23

Station Type Date Time Source
KBKW TAF 2022/06/28 21:58 UTC NOAA

TAF
AMD KBKW 282056Z 2821/2918 35005KT P6SM FEW250
FM291400 24005KT P6SM FEW250

Example: see airport list